CKK6767 ZLLL-ZUGY
Flight info
| Callsign | CKK6767 |
|---|---|
| Flight time | 1h 34m |
| Altitude | 31100 |
| Route | IRMUB B330 QNX |
| Aircraft | MD11/H-SDE1E2E3FGHIJ2J3J4J5M1RWXY/LB1D1 |
Departure
| Time | 2026-04-22 09:49 |
|---|---|
| Airport | Lanzhou Zhongchuan International Airport (ZLLL) |
Arrival
| Time | 2026-04-22 11:23 |
|---|---|
| Airport | Guiyang Longdongbao International Airport (ZUGY) |
| Time | Latitude | Longitude | Altitude | Speed | Heading |
|---|---|---|---|---|---|
| 2026-04-22 09:42 | 36.52471 | 103.64130 | 6386 ft | 0 kts | 87° |
| 2026-04-22 09:43 | 36.52471 | 103.64137 | 6386 ft | 3 kts | 86° |
| 2026-04-22 09:43 | 36.52477 | 103.64175 | 6390 ft | 6 kts | 70° |
| 2026-04-22 09:43 | 36.52513 | 103.64205 | 6390 ft | 8 kts | 19° |
| 2026-04-22 09:44 | 36.52574 | 103.64211 | 6392 ft | 10 kts | 358° |
| 2026-04-22 09:44 | 36.52654 | 103.64206 | 6392 ft | 13 kts | 357° |
| 2026-04-22 09:44 | 36.52763 | 103.64199 | 6393 ft | 18 kts | 357° |
| 2026-04-22 09:44 | 36.52906 | 103.64190 | 6396 ft | 23 kts | 357° |
| 2026-04-22 09:45 | 36.53062 | 103.64179 | 6397 ft | 20 kts | 357° |
| 2026-04-22 09:45 | 36.53189 | 103.64171 | 6399 ft | 16 kts | 357° |
| 2026-04-22 09:45 | 36.53294 | 103.64164 | 6401 ft | 15 kts | 357° |
| 2026-04-22 09:45 | 36.53405 | 103.64158 | 6403 ft | 17 kts | 357° |
| 2026-04-22 09:46 | 36.53532 | 103.64149 | 6404 ft | 20 kts | 357° |
| 2026-04-22 09:46 | 36.53677 | 103.64140 | 6406 ft | 22 kts | 357° |
| 2026-04-22 09:46 | 36.53828 | 103.64135 | 6408 ft | 13 kts | 10° |
| 2026-04-22 09:46 | 36.53890 | 103.64167 | 6409 ft | 9 kts | 21° |
| 2026-04-22 09:47 | 36.53935 | 103.64217 | 6410 ft | 10 kts | 55° |
| 2026-04-22 09:47 | 36.53951 | 103.64324 | 6411 ft | 15 kts | 88° |
| 2026-04-22 09:47 | 36.53945 | 103.64394 | 6411 ft | 3 kts | 120° |
| 2026-04-22 09:47 | 36.53924 | 103.64416 | 6410 ft | 6 kts | 151° |
| 2026-04-22 09:48 | 36.53867 | 103.64422 | 6411 ft | 11 kts | 178° |
| 2026-04-22 09:48 | 36.53640 | 103.64437 | 6406 ft | 72 kts | 177° |
| 2026-04-22 09:48 | 36.52840 | 103.64490 | 6394 ft | 155 kts | 177° |
| 2026-04-22 09:48 | 36.51570 | 103.64561 | 6559 ft | 199 kts | 178° |
| 2026-04-22 09:49 | 36.50161 | 103.64648 | 7421 ft | 201 kts | 177° |
| 2026-04-22 09:49 | 36.48803 | 103.64889 | 8475 ft | 198 kts | 162° |
| 2026-04-22 09:49 | 36.47639 | 103.65842 | 9209 ft | 209 kts | 130° |
| 2026-04-22 09:49 | 36.46686 | 103.67195 | 10000 ft | 217 kts | 133° |
| 2026-04-22 09:50 | 36.45542 | 103.68624 | 10161 ft | 247 kts | 136° |
| 2026-04-22 09:50 | 36.44209 | 103.70165 | 10265 ft | 278 kts | 137° |
| 2026-04-22 09:50 | 36.43214 | 103.71273 | 10351 ft | 302 kts | 138° |
| 2026-04-22 09:50 | 36.41525 | 103.73099 | 10497 ft | 340 kts | 139° |
| 2026-04-22 09:51 | 36.39643 | 103.75080 | 10932 ft | 363 kts | 140° |
| 2026-04-22 09:51 | 36.37687 | 103.77101 | 11910 ft | 369 kts | 140° |
| 2026-04-22 09:51 | 36.35021 | 103.79819 | 13164 ft | 379 kts | 140° |
| 2026-04-22 09:51 | 36.33635 | 103.81222 | 13783 ft | 383 kts | 140° |
| 2026-04-22 09:52 | 36.31549 | 103.83327 | 14561 ft | 391 kts | 141° |
| 2026-04-22 09:52 | 36.29417 | 103.85471 | 15295 ft | 398 kts | 141° |
| 2026-04-22 09:52 | 36.27245 | 103.87653 | 16019 ft | 406 kts | 141° |
| 2026-04-22 09:52 | 36.25033 | 103.89872 | 16730 ft | 413 kts | 142° |
| 2026-04-22 09:53 | 36.22782 | 103.92128 | 17456 ft | 420 kts | 142° |
| 2026-04-22 09:53 | 36.20497 | 103.94427 | 18146 ft | 426 kts | 141° |
| 2026-04-22 09:53 | 36.18217 | 103.96829 | 18776 ft | 433 kts | 140° |
| 2026-04-22 09:53 | 36.15953 | 103.99304 | 19404 ft | 437 kts | 139° |
| 2026-04-22 09:54 | 36.13675 | 104.01830 | 20053 ft | 441 kts | 139° |
| 2026-04-22 09:54 | 36.11381 | 104.04385 | 20668 ft | 446 kts | 139° |
| 2026-04-22 09:54 | 36.09065 | 104.06961 | 21340 ft | 449 kts | 139° |
| 2026-04-22 09:54 | 36.06761 | 104.09516 | 21993 ft | 453 kts | 139° |
| 2026-04-22 09:55 | 36.04401 | 104.12128 | 22648 ft | 457 kts | 139° |
| 2026-04-22 09:55 | 36.02020 | 104.14757 | 23298 ft | 462 kts | 139° |
| 2026-04-22 09:55 | 35.99613 | 104.17410 | 23942 ft | 465 kts | 139° |
| 2026-04-22 09:55 | 35.97190 | 104.20079 | 24550 ft | 469 kts | 140° |
| 2026-04-22 09:56 | 35.94745 | 104.22768 | 25147 ft | 473 kts | 140° |
| 2026-04-22 09:56 | 35.92277 | 104.25481 | 25747 ft | 477 kts | 140° |
| 2026-04-22 09:56 | 35.89783 | 104.28221 | 26351 ft | 481 kts | 140° |
| 2026-04-22 09:56 | 35.87236 | 104.30928 | 26935 ft | 484 kts | 143° |
| 2026-04-22 09:57 | 35.84465 | 104.33287 | 27528 ft | 484 kts | 154° |
| 2026-04-22 09:57 | 35.81389 | 104.34940 | 28141 ft | 481 kts | 167° |
| 2026-04-22 09:57 | 35.78127 | 104.35736 | 28743 ft | 477 kts | 179° |
| 2026-04-22 09:57 | 35.74816 | 104.35920 | 29324 ft | 477 kts | 185° |
| 2026-04-22 09:58 | 35.71535 | 104.35856 | 29896 ft | 479 kts | 186° |
| 2026-04-22 09:58 | 35.68212 | 104.35742 | 30284 ft | 476 kts | 186° |
| 2026-04-22 09:58 | 35.64902 | 104.35663 | 30643 ft | 475 kts | 186° |
| 2026-04-22 09:58 | 35.61598 | 104.35635 | 30986 ft | 474 kts | 186° |
| 2026-04-22 09:59 | 35.58297 | 104.35649 | 31121 ft | 474 kts | 185° |
| 2026-04-22 09:59 | 35.55008 | 104.35689 | 31145 ft | 472 kts | 185° |
| 2026-04-22 09:59 | 35.48446 | 104.35799 | 31152 ft | 470 kts | 185° |
| 2026-04-22 10:00 | 35.41899 | 104.35912 | 31154 ft | 469 kts | 186° |
| 2026-04-22 10:00 | 35.35373 | 104.36019 | 31151 ft | 469 kts | 186° |
| 2026-04-22 10:01 | 35.28855 | 104.36123 | 31145 ft | 468 kts | 186° |
| 2026-04-22 10:01 | 35.22346 | 104.36228 | 31143 ft | 467 kts | 186° |
| 2026-04-22 10:02 | 35.15893 | 104.36331 | 31138 ft | 466 kts | 187° |
| 2026-04-22 10:02 | 35.09423 | 104.36434 | 31142 ft | 465 kts | 187° |
| 2026-04-22 10:03 | 35.02957 | 104.36537 | 31138 ft | 464 kts | 187° |
| 2026-04-22 10:03 | 34.96509 | 104.36640 | 31134 ft | 463 kts | 187° |
| 2026-04-22 10:04 | 34.90073 | 104.36742 | 31135 ft | 462 kts | 187° |
| 2026-04-22 10:04 | 34.83636 | 104.36844 | 31136 ft | 461 kts | 187° |
| 2026-04-22 10:05 | 34.77255 | 104.36945 | 31127 ft | 461 kts | 187° |
| 2026-04-22 10:05 | 34.70841 | 104.37046 | 31135 ft | 461 kts | 187° |
| 2026-04-22 10:06 | 34.64428 | 104.37147 | 31140 ft | 461 kts | 187° |
| 2026-04-22 10:06 | 34.58014 | 104.37248 | 31136 ft | 461 kts | 187° |
| 2026-04-22 10:07 | 34.51608 | 104.37349 | 31135 ft | 460 kts | 187° |
| 2026-04-22 10:07 | 34.45195 | 104.37449 | 31136 ft | 461 kts | 187° |
| 2026-04-22 10:08 | 34.38781 | 104.37550 | 31138 ft | 461 kts | 187° |
| 2026-04-22 10:08 | 34.32370 | 104.37651 | 31128 ft | 461 kts | 188° |
| 2026-04-22 10:09 | 34.26001 | 104.37751 | 31124 ft | 461 kts | 188° |
| 2026-04-22 10:09 | 34.19580 | 104.37851 | 31123 ft | 461 kts | 188° |
| 2026-04-22 10:10 | 34.13164 | 104.37952 | 31121 ft | 460 kts | 188° |
| 2026-04-22 10:10 | 34.06748 | 104.38052 | 31114 ft | 462 kts | 188° |
| 2026-04-22 10:11 | 34.00322 | 104.38151 | 31117 ft | 462 kts | 188° |
| 2026-04-22 10:11 | 33.93955 | 104.38252 | 31108 ft | 459 kts | 188° |
| 2026-04-22 10:12 | 33.87555 | 104.38348 | 31112 ft | 459 kts | 189° |
| 2026-04-22 10:12 | 33.81161 | 104.38447 | 31105 ft | 459 kts | 188° |
| 2026-04-22 10:13 | 33.74763 | 104.38548 | 31110 ft | 459 kts | 189° |
| 2026-04-22 10:13 | 33.68375 | 104.38648 | 31106 ft | 458 kts | 189° |
| 2026-04-22 10:14 | 33.61981 | 104.38873 | 31112 ft | 466 kts | 183° |
| 2026-04-22 10:14 | 33.58765 | 104.39692 | 31108 ft | 482 kts | 171° |
| 2026-04-22 10:14 | 33.55649 | 104.41326 | 31112 ft | 496 kts | 160° |
| 2026-04-22 10:15 | 33.49797 | 104.45804 | 31109 ft | 505 kts | 154° |
| 2026-04-22 10:15 | 33.43934 | 104.50472 | 31097 ft | 504 kts | 156° |
| 2026-04-22 10:16 | 33.37895 | 104.54549 | 31102 ft | 487 kts | 169° |
| 2026-04-22 10:16 | 33.34693 | 104.55607 | 31086 ft | 469 kts | 181° |
| 2026-04-22 10:16 | 33.31486 | 104.55958 | 31110 ft | 459 kts | 187° |
| 2026-04-22 10:17 | 33.25136 | 104.56007 | 31087 ft | 455 kts | 189° |
| 2026-04-22 10:17 | 33.18778 | 104.56154 | 31090 ft | 458 kts | 187° |
| 2026-04-22 10:18 | 33.12397 | 104.56496 | 31093 ft | 460 kts | 186° |
| 2026-04-22 10:18 | 33.06007 | 104.56909 | 31101 ft | 460 kts | 186° |
| 2026-04-22 10:19 | 32.99655 | 104.57324 | 31102 ft | 459 kts | 186° |
| 2026-04-22 10:19 | 32.93276 | 104.57734 | 31101 ft | 459 kts | 186° |
| 2026-04-22 10:20 | 32.86879 | 104.58140 | 31100 ft | 460 kts | 186° |
| 2026-04-22 10:20 | 32.80487 | 104.58548 | 31107 ft | 460 kts | 186° |
| 2026-04-22 10:21 | 32.74098 | 104.58920 | 31119 ft | 459 kts | 186° |
| 2026-04-22 10:21 | 32.67713 | 104.59210 | 31111 ft | 459 kts | 187° |
| 2026-04-22 10:22 | 32.61324 | 104.59487 | 31116 ft | 459 kts | 186° |
| 2026-04-22 10:22 | 32.54937 | 104.59770 | 31126 ft | 459 kts | 186° |
| 2026-04-22 10:23 | 32.48553 | 104.60062 | 31106 ft | 459 kts | 186° |
| 2026-04-22 10:23 | 32.42198 | 104.60354 | 31117 ft | 460 kts | 186° |
| 2026-04-22 10:24 | 32.35811 | 104.60684 | 31110 ft | 459 kts | 186° |
| 2026-04-22 10:24 | 32.29417 | 104.61038 | 31112 ft | 460 kts | 186° |
| 2026-04-22 10:25 | 32.23028 | 104.61392 | 31116 ft | 460 kts | 185° |
| 2026-04-22 10:25 | 32.16634 | 104.61742 | 31099 ft | 460 kts | 185° |
| 2026-04-22 10:26 | 32.10224 | 104.62092 | 31103 ft | 461 kts | 185° |
| 2026-04-22 10:26 | 32.03819 | 104.62442 | 31098 ft | 461 kts | 185° |
| 2026-04-22 10:27 | 31.97398 | 104.62792 | 31094 ft | 461 kts | 185° |
| 2026-04-22 10:27 | 31.90980 | 104.63141 | 31088 ft | 462 kts | 184° |
| 2026-04-22 10:28 | 31.84589 | 104.63487 | 31089 ft | 463 kts | 184° |
| 2026-04-22 10:28 | 31.78143 | 104.63831 | 31083 ft | 464 kts | 184° |
| 2026-04-22 10:29 | 31.71688 | 104.64108 | 31077 ft | 464 kts | 184° |
| 2026-04-22 10:29 | 31.65226 | 104.64358 | 31076 ft | 465 kts | 184° |
| 2026-04-22 10:30 | 31.58752 | 104.64611 | 31069 ft | 466 kts | 184° |
| 2026-04-22 10:30 | 31.52265 | 104.64868 | 31063 ft | 466 kts | 184° |
| 2026-04-22 10:31 | 31.45778 | 104.65126 | 31061 ft | 467 kts | 184° |
| 2026-04-22 10:31 | 31.39270 | 104.65385 | 31057 ft | 468 kts | 183° |
| 2026-04-22 10:32 | 31.32751 | 104.65643 | 31059 ft | 469 kts | 183° |
| 2026-04-22 10:32 | 31.26266 | 104.65901 | 31055 ft | 469 kts | 184° |
| 2026-04-22 10:33 | 31.19735 | 104.66159 | 31054 ft | 470 kts | 184° |
| 2026-04-22 10:33 | 31.13193 | 104.66417 | 31053 ft | 470 kts | 184° |
| 2026-04-22 10:34 | 31.06634 | 104.66675 | 31058 ft | 479 kts | 184° |
| 2026-04-22 10:34 | 31.03268 | 104.66878 | 31054 ft | 491 kts | 182° |
| 2026-04-22 10:34 | 30.99843 | 104.67203 | 31057 ft | 497 kts | 180° |
| 2026-04-22 10:35 | 30.92933 | 104.68010 | 31054 ft | 499 kts | 180° |
| 2026-04-22 10:35 | 30.86027 | 104.68834 | 31053 ft | 499 kts | 180° |
| 2026-04-22 10:36 | 30.79117 | 104.69628 | 31054 ft | 499 kts | 181° |
| 2026-04-22 10:36 | 30.72210 | 104.70407 | 31055 ft | 498 kts | 181° |
| 2026-04-22 10:37 | 30.61862 | 104.71571 | 31052 ft | 498 kts | 181° |
| 2026-04-22 10:38 | 30.55013 | 104.72339 | 31051 ft | 497 kts | 181° |
| 2026-04-22 10:38 | 30.48130 | 104.73107 | 31057 ft | 497 kts | 181° |
| 2026-04-22 10:39 | 30.42353 | 104.73750 | 31058 ft | 497 kts | 182° |
| 2026-04-22 10:39 | 30.35468 | 104.74517 | 31066 ft | 497 kts | 182° |
| 2026-04-22 10:40 | 30.28621 | 104.75278 | 31066 ft | 497 kts | 182° |
| 2026-04-22 10:40 | 30.20574 | 104.76172 | 31058 ft | 497 kts | 182° |
| 2026-04-22 10:41 | 30.14861 | 104.76806 | 31059 ft | 497 kts | 182° |
| 2026-04-22 10:41 | 30.07993 | 104.77567 | 31081 ft | 492 kts | 181° |
| 2026-04-22 10:42 | 30.01186 | 104.78320 | 31064 ft | 491 kts | 181° |
| 2026-04-22 10:42 | 29.94386 | 104.79072 | 31064 ft | 491 kts | 181° |
| 2026-04-22 10:43 | 29.87592 | 104.79825 | 31064 ft | 490 kts | 181° |
| 2026-04-22 10:43 | 29.80800 | 104.80579 | 31067 ft | 490 kts | 181° |
| 2026-04-22 10:44 | 29.74012 | 104.81331 | 31068 ft | 490 kts | 181° |
| 2026-04-22 10:44 | 29.67224 | 104.82082 | 31064 ft | 490 kts | 181° |
| 2026-04-22 10:45 | 29.60484 | 104.82826 | 31065 ft | 489 kts | 181° |
| 2026-04-22 10:45 | 29.53701 | 104.83575 | 31066 ft | 489 kts | 181° |
| 2026-04-22 10:46 | 29.46920 | 104.84322 | 31062 ft | 489 kts | 181° |
| 2026-04-22 10:46 | 29.40132 | 104.85069 | 31064 ft | 489 kts | 181° |
| 2026-04-22 10:47 | 29.33352 | 104.85962 | 31058 ft | 495 kts | 174° |
| 2026-04-22 10:47 | 29.26775 | 104.88612 | 31063 ft | 507 kts | 161° |
| 2026-04-22 10:48 | 29.20439 | 104.92096 | 31059 ft | 508 kts | 160° |
| 2026-04-22 10:48 | 29.14037 | 104.95539 | 31056 ft | 507 kts | 161° |
| 2026-04-22 10:49 | 29.07606 | 104.98831 | 31064 ft | 506 kts | 162° |
| 2026-04-22 10:49 | 29.01166 | 105.02071 | 31054 ft | 506 kts | 162° |
| 2026-04-22 10:50 | 28.94725 | 105.05309 | 31058 ft | 505 kts | 162° |
| 2026-04-22 10:50 | 28.88289 | 105.08544 | 31058 ft | 505 kts | 162° |
| 2026-04-22 10:51 | 28.81862 | 105.11774 | 31067 ft | 505 kts | 163° |
| 2026-04-22 10:51 | 28.75446 | 105.15035 | 31061 ft | 506 kts | 161° |
| 2026-04-22 10:52 | 28.69155 | 105.18717 | 31069 ft | 509 kts | 158° |
| 2026-04-22 10:52 | 28.62977 | 105.22556 | 31067 ft | 510 kts | 158° |
| 2026-04-22 10:53 | 28.56742 | 105.26413 | 31069 ft | 509 kts | 159° |
| 2026-04-22 10:53 | 28.50505 | 105.30229 | 31073 ft | 509 kts | 159° |
| 2026-04-22 10:54 | 28.44262 | 105.34032 | 31071 ft | 509 kts | 159° |
| 2026-04-22 10:54 | 28.38010 | 105.37834 | 31074 ft | 510 kts | 159° |
| 2026-04-22 10:55 | 28.31737 | 105.41646 | 31080 ft | 511 kts | 159° |
| 2026-04-22 10:55 | 28.25457 | 105.45458 | 31088 ft | 513 kts | 159° |
| 2026-04-22 10:56 | 28.19187 | 105.49258 | 31090 ft | 514 kts | 159° |
| 2026-04-22 10:56 | 28.12865 | 105.53085 | 31095 ft | 515 kts | 159° |
| 2026-04-22 10:57 | 28.06504 | 105.56823 | 31091 ft | 511 kts | 165° |
| 2026-04-22 10:57 | 28.03190 | 105.58118 | 31096 ft | 498 kts | 174° |
| 2026-04-22 10:57 | 27.99804 | 105.58844 | 31097 ft | 492 kts | 181° |
| 2026-04-22 10:58 | 27.93020 | 105.59641 | 31090 ft | 490 kts | 183° |
| 2026-04-22 10:58 | 27.86212 | 105.60480 | 31097 ft | 493 kts | 181° |
| 2026-04-22 10:59 | 27.79404 | 105.61739 | 31090 ft | 504 kts | 173° |
| 2026-04-22 10:59 | 27.76116 | 105.63096 | 31097 ft | 517 kts | 163° |
| 2026-04-22 10:59 | 27.72894 | 105.64991 | 31091 ft | 524 kts | 158° |
| 2026-04-22 11:00 | 27.66597 | 105.69188 | 30746 ft | 525 kts | 159° |
| 2026-04-22 11:00 | 27.63395 | 105.71149 | 30283 ft | 521 kts | 161° |
| 2026-04-22 11:00 | 27.60184 | 105.72989 | 29779 ft | 515 kts | 162° |
| 2026-04-22 11:00 | 27.56984 | 105.74748 | 29224 ft | 510 kts | 162° |
| 2026-04-22 11:01 | 27.53801 | 105.76463 | 28706 ft | 504 kts | 163° |
| 2026-04-22 11:01 | 27.50652 | 105.78153 | 28180 ft | 499 kts | 162° |
| 2026-04-22 11:01 | 27.47538 | 105.79825 | 27672 ft | 493 kts | 162° |
| 2026-04-22 11:01 | 27.44464 | 105.81482 | 27170 ft | 489 kts | 162° |
| 2026-04-22 11:02 | 27.41406 | 105.83134 | 26682 ft | 484 kts | 162° |
| 2026-04-22 11:02 | 27.38378 | 105.84772 | 26195 ft | 480 kts | 161° |
| 2026-04-22 11:02 | 27.35378 | 105.86395 | 25719 ft | 476 kts | 161° |
| 2026-04-22 11:02 | 27.32401 | 105.88006 | 25250 ft | 473 kts | 161° |
| 2026-04-22 11:03 | 27.29442 | 105.89606 | 24794 ft | 470 kts | 161° |
| 2026-04-22 11:03 | 27.26509 | 105.91190 | 24344 ft | 467 kts | 161° |
| 2026-04-22 11:03 | 27.23631 | 105.92744 | 23900 ft | 464 kts | 160° |
| 2026-04-22 11:03 | 27.20729 | 105.94311 | 23437 ft | 461 kts | 160° |
| 2026-04-22 11:04 | 27.17847 | 105.95866 | 22913 ft | 458 kts | 160° |
| 2026-04-22 11:04 | 27.14985 | 105.97410 | 22388 ft | 455 kts | 160° |
| 2026-04-22 11:04 | 27.12135 | 105.98946 | 21892 ft | 452 kts | 161° |
| 2026-04-22 11:04 | 27.09312 | 106.00467 | 21380 ft | 449 kts | 161° |
| 2026-04-22 11:05 | 27.06510 | 106.01985 | 20883 ft | 446 kts | 160° |
| 2026-04-22 11:05 | 27.03840 | 106.03779 | 20404 ft | 452 kts | 148° |
| 2026-04-22 11:05 | 27.01547 | 106.06207 | 19916 ft | 457 kts | 136° |
| 2026-04-22 11:05 | 26.99559 | 106.08989 | 19469 ft | 457 kts | 131° |
| 2026-04-22 11:06 | 26.97712 | 106.11876 | 18995 ft | 455 kts | 129° |
| 2026-04-22 11:06 | 26.95911 | 106.14748 | 18550 ft | 444 kts | 129° |
| 2026-04-22 11:06 | 26.94135 | 106.17536 | 18086 ft | 436 kts | 130° |
| 2026-04-22 11:06 | 26.92351 | 106.20268 | 17557 ft | 431 kts | 131° |
| 2026-04-22 11:07 | 26.90565 | 106.22949 | 17057 ft | 427 kts | 131° |
| 2026-04-22 11:07 | 26.88807 | 106.25557 | 16568 ft | 423 kts | 131° |
| 2026-04-22 11:07 | 26.87034 | 106.28171 | 16076 ft | 420 kts | 131° |
| 2026-04-22 11:07 | 26.85269 | 106.30767 | 15584 ft | 416 kts | 131° |
| 2026-04-22 11:08 | 26.83543 | 106.33305 | 15110 ft | 405 kts | 131° |
| 2026-04-22 11:08 | 26.81857 | 106.35787 | 14660 ft | 395 kts | 131° |
| 2026-04-22 11:08 | 26.80213 | 106.38204 | 14211 ft | 386 kts | 131° |
| 2026-04-22 11:08 | 26.78605 | 106.40575 | 13763 ft | 378 kts | 131° |
| 2026-04-22 11:09 | 26.77034 | 106.42901 | 13259 ft | 370 kts | 131° |
| 2026-04-22 11:09 | 26.75496 | 106.45181 | 12785 ft | 364 kts | 130° |
| 2026-04-22 11:09 | 26.73983 | 106.47427 | 12295 ft | 358 kts | 130° |
| 2026-04-22 11:09 | 26.72500 | 106.49627 | 11807 ft | 352 kts | 130° |
| 2026-04-22 11:10 | 26.71054 | 106.51771 | 11357 ft | 346 kts | 130° |
| 2026-04-22 11:10 | 26.69621 | 106.53898 | 10994 ft | 338 kts | 130° |
| 2026-04-22 11:10 | 26.68224 | 106.55972 | 10638 ft | 330 kts | 129° |
| 2026-04-22 11:10 | 26.66854 | 106.58003 | 10296 ft | 323 kts | 129° |
| 2026-04-22 11:11 | 26.65515 | 106.59988 | 9978 ft | 315 kts | 129° |
| 2026-04-22 11:11 | 26.64215 | 106.61914 | 9835 ft | 308 kts | 129° |
| 2026-04-22 11:11 | 26.62923 | 106.63819 | 9814 ft | 307 kts | 130° |
| 2026-04-22 11:11 | 26.61524 | 106.65619 | 9815 ft | 305 kts | 139° |
| 2026-04-22 11:12 | 26.59877 | 106.67099 | 9652 ft | 305 kts | 151° |
| 2026-04-22 11:12 | 26.57989 | 106.68094 | 9282 ft | 297 kts | 166° |
| 2026-04-22 11:12 | 26.55989 | 106.68532 | 8913 ft | 292 kts | 179° |
| 2026-04-22 11:12 | 26.53976 | 106.68456 | 8543 ft | 288 kts | 190° |
| 2026-04-22 11:13 | 26.51996 | 106.68100 | 8177 ft | 287 kts | 193° |
| 2026-04-22 11:13 | 26.50045 | 106.67688 | 7957 ft | 286 kts | 193° |
| 2026-04-22 11:13 | 26.48078 | 106.67267 | 7891 ft | 288 kts | 193° |
| 2026-04-22 11:13 | 26.46135 | 106.66862 | 7860 ft | 281 kts | 193° |
| 2026-04-22 11:14 | 26.44279 | 106.66486 | 7877 ft | 258 kts | 193° |
| 2026-04-22 11:14 | 26.42600 | 106.66151 | 7877 ft | 239 kts | 193° |
| 2026-04-22 11:14 | 26.40989 | 106.65829 | 7860 ft | 234 kts | 193° |
| 2026-04-22 11:14 | 26.39392 | 106.65509 | 7855 ft | 232 kts | 193° |
| 2026-04-22 11:15 | 26.37807 | 106.65192 | 7872 ft | 231 kts | 193° |
| 2026-04-22 11:15 | 26.36225 | 106.64878 | 7854 ft | 226 kts | 193° |
| 2026-04-22 11:15 | 26.34739 | 106.64588 | 7851 ft | 214 kts | 193° |
| 2026-04-22 11:15 | 26.33261 | 106.64498 | 7851 ft | 214 kts | 176° |
| 2026-04-22 11:16 | 26.31829 | 106.64995 | 7710 ft | 220 kts | 150° |
| 2026-04-22 11:16 | 26.30748 | 106.66146 | 7386 ft | 217 kts | 120° |
| 2026-04-22 11:16 | 26.30230 | 106.67673 | 7059 ft | 210 kts | 99° |
| 2026-04-22 11:16 | 26.29951 | 106.69262 | 7001 ft | 209 kts | 97° |
| 2026-04-22 11:17 | 26.29691 | 106.70860 | 6943 ft | 209 kts | 97° |
| 2026-04-22 11:17 | 26.29486 | 106.72449 | 6878 ft | 206 kts | 88° |
| 2026-04-22 11:17 | 26.29693 | 106.73996 | 6869 ft | 200 kts | 65° |
| 2026-04-22 11:17 | 26.30453 | 106.75252 | 6868 ft | 195 kts | 39° |
| 2026-04-22 11:18 | 26.31629 | 106.75916 | 6881 ft | 189 kts | 13° |
| 2026-04-22 11:18 | 26.32913 | 106.76282 | 6880 ft | 191 kts | 12° |
| 2026-04-22 11:18 | 26.34145 | 106.76619 | 6811 ft | 167 kts | 10° |
| 2026-04-22 11:18 | 26.35223 | 106.76855 | 6877 ft | 154 kts | 8° |
| 2026-04-22 11:19 | 26.36272 | 106.77057 | 6875 ft | 152 kts | 8° |
| 2026-04-22 11:19 | 26.37313 | 106.77260 | 6693 ft | 151 kts | 8° |
| 2026-04-22 11:19 | 26.38345 | 106.77460 | 6531 ft | 150 kts | 9° |
| 2026-04-22 11:19 | 26.39366 | 106.77660 | 6347 ft | 148 kts | 9° |
| 2026-04-22 11:20 | 26.40373 | 106.77858 | 6154 ft | 147 kts | 9° |
| 2026-04-22 11:20 | 26.41378 | 106.78055 | 5942 ft | 147 kts | 8° |
| 2026-04-22 11:20 | 26.42387 | 106.78252 | 5751 ft | 148 kts | 9° |
| 2026-04-22 11:20 | 26.43383 | 106.78446 | 5561 ft | 147 kts | 10° |
| 2026-04-22 11:21 | 26.44388 | 106.78644 | 5391 ft | 146 kts | 10° |
| 2026-04-22 11:21 | 26.45390 | 106.78842 | 5174 ft | 146 kts | 10° |
| 2026-04-22 11:21 | 26.46394 | 106.79038 | 4981 ft | 147 kts | 11° |
| 2026-04-22 11:21 | 26.47403 | 106.79236 | 4765 ft | 148 kts | 12° |
| 2026-04-22 11:22 | 26.48436 | 106.79431 | 4523 ft | 152 kts | 10° |
| 2026-04-22 11:22 | 26.49476 | 106.79624 | 4339 ft | 147 kts | 11° |
| 2026-04-22 11:22 | 26.50478 | 106.79825 | 4091 ft | 149 kts | 11° |
| 2026-04-22 11:22 | 26.51480 | 106.80033 | 3935 ft | 151 kts | 12° |
| 2026-04-22 11:23 | 26.52498 | 106.80218 | 3771 ft | 147 kts | 9° |
| 2026-04-22 11:23 | 26.53341 | 106.80386 | 3747 ft | 96 kts | 12° |
| 2026-04-22 11:23 | 26.53834 | 106.80489 | 3744 ft | 55 kts | 7° |
| 2026-04-22 11:23 | 26.54051 | 106.80470 | 3743 ft | 22 kts | 343° |
| 2026-04-22 11:24 | 26.54161 | 106.80419 | 3745 ft | 10 kts | 310° |
| 2026-04-22 11:24 | 26.54176 | 106.80375 | 3746 ft | 3 kts | 279° |
| 2026-04-22 11:24 | 26.54177 | 106.80347 | 3747 ft | 4 kts | 274° |
| 2026-04-22 11:24 | 26.54182 | 106.80306 | 3749 ft | 7 kts | 278° |
| 2026-04-22 11:25 | 26.54191 | 106.80241 | 3750 ft | 10 kts | 282° |
| 2026-04-22 11:25 | 26.54209 | 106.80151 | 3750 ft | 14 kts | 278° |
| 2026-04-22 11:25 | 26.54224 | 106.80066 | 3749 ft | 10 kts | 291° |
| 2026-04-22 11:25 | 26.54265 | 106.80016 | 3749 ft | 8 kts | 318° |
| 2026-04-22 11:26 | 26.54316 | 106.79965 | 3749 ft | 9 kts | 318° |
| 2026-04-22 11:26 | 26.54353 | 106.79948 | 3749 ft | 0 kts | 357° |
| 2026-04-22 11:26 | 26.54376 | 106.79953 | 3749 ft | 6 kts | 13° |
| 2026-04-22 11:26 | 26.54431 | 106.79966 | 3749 ft | 0 kts | 11° |